Terminal Aerodrome Forecast
Issued by NWS

Home | Current Version | Previous Version | Text Only | Print | Product List | Glossary On
Versions: 1 2 3 4 5 6 7 8 9 10 11 12 13
000
FTUS45 KABQ 282343
TAFROW
TAF
KROW 282343Z 2900/2924 24015G25KT P6SM VCSH BKN130
     FM290300 28011KT P6SM SCT080 BKN130
     FM290900 31011KT P6SM VCSH BKN100
     FM291200 34020G28KT P6SM -RA OVC050
     FM291400 35023G33KT 4SM RA OVC020
     FM292000 35020G30KT P6SM BKN050=

USA.gov is the U.S. government's official web portal to all federal, state and local government web resources and services.